Hauptseite
METAR-TAF:

METAR-TAF

Flughäfen :

Flughafen Piarco

Port-of-Spain, Trinidad, Trinidad und Tobago

Breite: 10-37N, Länge: 061-21W, Höhe: 12 m

Beobachtung

Neuester Wetterbericht von vor 1 Stunde und 9 Minuten, um 02:00 UTC
Wind 6 kt aus Ost/Südost
Temperatur 27°C
Luftfeuchtigkeit 84%
Luftdruck 1016 hPa
Sichtweite 10 km oder mehr
Leicht bewölkt in der Höhe von 1600 ft

METAR: TTPP 200200Z 11006KT 9999 FEW016 27/24 Q1016 NOSIG

Zeit: 23:09 (03:09 UTC)

Prognose

Neuester Wetterbericht von vor 5 Stunden und 9 Minuten, um 22:00 UTC
Gültige Prognose vom 20 um 00 UTC bis 20 um 24 UTC
Wind kt aus Nord
Sichtweite 10 km oder mehr
Leicht bewölkt in der Höhe von 1800 ft
Übergehend zu
vom 20 um 12 UTC bis 20 um 14 UTC
Wind 12 kt aus Ost/Südost

TAF: TTPP 192200Z 2000/2024 00000KT 9999 FEW018 BECMG 2012/2014 11012KT

Wetterbeobachtungen und Prognosen von mehr als 4000 Flughäfen (METAR und TAF Bericht).

Die verfügbaren Stationen werden durch gelbe und rote Markierungen auf der Karte dargestellt.

Führen Sie die Maus auf sie, um den Namen der Station zu sehen.

Darauf klicken, um die Beobachtung von Wetterbeobachtungen und Prognosen zu sehen.

Um die Karte zu ändern : klicken Sie auf den grünen Tasten mit einem schwarzen Kreuz Zum Vergrößern, auf den grünen Button mit einem Gedankenstrich zu verkleinern, oder auf die grünen Pfeile für benachbarte Karten.


METAR-TAF: